Terminal Aerodrome Forecast
Issued by NWS Sioux Falls, SD

Home | Current Version | Previous Version | Graphics & Text | Print | Product List | Glossary On
Versions: 1 2 3 4 5 6 7 8 9 10 11 12 13 14
000
FTUS43 KFSD 142342
TAFHON
TAF
KHON 142342Z 1500/1524 03005KT P6SM OVC060
      TEMPO 1500/1504 P6SM -RA OVC050
     FM151000 33005KT P6SM SKC=

USA.gov is the U.S. government's official web portal to all federal, state and local government web resources and services.